sensor_id;sensor_type;location;lat;lon;timestamp;P1;durP1;ratioP1;P2;durP2;ratioP2
65461;SDS011;53236;43.666;18.444;2023-07-20T00:01:15;15.25;;;9.75;;
65461;SDS011;53236;43.666;18.444;2023-07-20T00:03:40;18.65;;;9.48;;
65461;SDS011;53236;43.666;18.444;2023-07-20T00:06:06;15.48;;;8.57;;
65461;SDS011;53236;43.666;18.444;2023-07-20T00:08:32;15.15;;;8.85;;
65461;SDS011;53236;43.666;18.444;2023-07-20T00:10:58;14.43;;;9.20;;
65461;SDS011;53236;43.666;18.444;2023-07-20T00:13:24;17.25;;;9.63;;
65461;SDS011;53236;43.666;18.444;2023-07-20T00:15:51;17.02;;;9.45;;
65461;SDS011;53236;43.666;18.444;2023-07-20T00:18:17;15.35;;;9.32;;
65461;SDS011;53236;43.666;18.444;2023-07-20T00:20:42;16.38;;;8.82;;
65461;SDS011;53236;43.666;18.444;2023-07-20T00:23:08;17.38;;;10.02;;
65461;SDS011;53236;43.666;18.444;2023-07-20T00:25:34;16.15;;;8.38;;
65461;SDS011;53236;43.666;18.444;2023-07-20T00:28:01;18.80;;;9.75;;
65461;SDS011;53236;43.666;18.444;2023-07-20T00:30:26;13.38;;;8.95;;
65461;SDS011;53236;43.666;18.444;2023-07-20T00:32:52;14.15;;;8.88;;
65461;SDS011;53236;43.666;18.444;2023-07-20T00:35:18;15.65;;;9.27;;
65461;SDS011;53236;43.666;18.444;2023-07-20T00:37:44;17.17;;;9.75;;
65461;SDS011;53236;43.666;18.444;2023-07-20T00:40:09;16.75;;;9.57;;
65461;SDS011;53236;43.666;18.444;2023-07-20T00:42:35;13.38;;;8.75;;
65461;SDS011;53236;43.666;18.444;2023-07-20T00:45:01;15.80;;;8.80;;
65461;SDS011;53236;43.666;18.444;2023-07-20T00:47:27;13.88;;;8.52;;
65461;SDS011;53236;43.666;18.444;2023-07-20T00:49:53;17.00;;;9.07;;
65461;SDS011;53236;43.666;18.444;2023-07-20T00:52:20;14.50;;;8.38;;
65461;SDS011;53236;43.666;18.444;2023-07-20T00:54:48;18.25;;;9.20;;
65461;SDS011;53236;43.666;18.444;2023-07-20T00:57:15;16.35;;;8.77;;
65461;SDS011;53236;43.666;18.444;2023-07-20T00:59:42;17.95;;;9.15;;
65461;SDS011;53236;43.666;18.444;2023-07-20T01:02:08;11.77;;;8.57;;
65461;SDS011;53236;43.666;18.444;2023-07-20T01:04:34;11.98;;;8.25;;
65461;SDS011;53236;43.666;18.444;2023-07-20T01:12:27;16.80;;;8.95;;
65461;SDS011;53236;43.666;18.444;2023-07-20T01:15:12;18.30;;;9.35;;
65461;SDS011;53236;43.666;18.444;2023-07-20T01:17:38;16.50;;;8.60;;
65461;SDS011;53236;43.666;18.444;2023-07-20T01:20:05;14.63;;;8.45;;
65461;SDS011;53236;43.666;18.444;2023-07-20T01:25:28;13.00;;;9.43;;
65461;SDS011;53236;43.666;18.444;2023-07-20T01:31:25;13.07;;;8.48;;
65461;SDS011;53236;43.666;18.444;2023-07-20T01:33:53;14.13;;;8.93;;
65461;SDS011;53236;43.666;18.444;2023-07-20T01:36:24;12.82;;;9.35;;
65461;SDS011;53236;43.666;18.444;2023-07-20T01:38:53;15.10;;;9.50;;
65461;SDS011;53236;43.666;18.444;2023-07-20T01:41:20;21.40;;;9.60;;
65461;SDS011;53236;43.666;18.444;2023-07-20T01:43:46;17.45;;;8.90;;
65461;SDS011;53236;43.666;18.444;2023-07-20T01:46:11;14.68;;;8.75;;
65461;SDS011;53236;43.666;18.444;2023-07-20T01:48:37;13.27;;;8.93;;
65461;SDS011;53236;43.666;18.444;2023-07-20T01:51:03;12.50;;;8.95;;
65461;SDS011;53236;43.666;18.444;2023-07-20T01:53:29;12.18;;;9.23;;
65461;SDS011;53236;43.666;18.444;2023-07-20T01:55:56;14.57;;;9.07;;
65461;SDS011;53236;43.666;18.444;2023-07-20T01:58:22;12.43;;;9.25;;
65461;SDS011;53236;43.666;18.444;2023-07-20T02:00:48;15.55;;;10.07;;
65461;SDS011;53236;43.666;18.444;2023-07-20T02:03:14;13.75;;;8.98;;
65461;SDS011;53236;43.666;18.444;2023-07-20T02:05:42;13.55;;;9.30;;
65461;SDS011;53236;43.666;18.444;2023-07-20T02:08:08;16.05;;;8.65;;
65461;SDS011;53236;43.666;18.444;2023-07-20T02:10:34;12.68;;;8.93;;
65461;SDS011;53236;43.666;18.444;2023-07-20T02:13:00;13.77;;;8.27;;
65461;SDS011;53236;43.666;18.444;2023-07-20T02:15:26;14.60;;;8.88;;
65461;SDS011;53236;43.666;18.444;2023-07-20T02:17:52;16.45;;;8.38;;
65461;SDS011;53236;43.666;18.444;2023-07-20T02:20:18;15.43;;;8.88;;
65461;SDS011;53236;43.666;18.444;2023-07-20T02:22:44;15.52;;;9.00;;
65461;SDS011;53236;43.666;18.444;2023-07-20T02:25:10;13.70;;;9.70;;
65461;SDS011;53236;43.666;18.444;2023-07-20T02:27:36;17.63;;;8.95;;
65461;SDS011;53236;43.666;18.444;2023-07-20T02:30:03;18.13;;;9.13;;
65461;SDS011;53236;43.666;18.444;2023-07-20T02:32:29;14.00;;;8.77;;
65461;SDS011;53236;43.666;18.444;2023-07-20T02:34:55;12.25;;;9.20;;
65461;SDS011;53236;43.666;18.444;2023-07-20T02:37:21;19.90;;;9.70;;
65461;SDS011;53236;43.666;18.444;2023-07-20T02:39:47;15.48;;;9.45;;
65461;SDS011;53236;43.666;18.444;2023-07-20T02:42:12;11.73;;;9.13;;
65461;SDS011;53236;43.666;18.444;2023-07-20T02:44:39;15.23;;;8.60;;
65461;SDS011;53236;43.666;18.444;2023-07-20T02:47:05;13.30;;;9.07;;
65461;SDS011;53236;43.666;18.444;2023-07-20T02:49:31;13.48;;;8.85;;
65461;SDS011;53236;43.666;18.444;2023-07-20T02:51:57;15.02;;;9.52;;
65461;SDS011;53236;43.666;18.444;2023-07-20T02:54:22;14.40;;;8.85;;
65461;SDS011;53236;43.666;18.444;2023-07-20T02:56:48;19.27;;;12.05;;
65461;SDS011;53236;43.666;18.444;2023-07-20T02:59:14;26.85;;;19.23;;
65461;SDS011;53236;43.666;18.444;2023-07-20T03:01:40;21.17;;;13.85;;
65461;SDS011;53236;43.666;18.444;2023-07-20T03:04:08;25.85;;;11.07;;
65461;SDS011;53236;43.666;18.444;2023-07-20T03:06:37;8.93;;;4.75;;
65461;SDS011;53236;43.666;18.444;2023-07-20T09:09:39;6.93;;;2.45;;
65461;SDS011;53236;43.666;18.444;2023-07-20T09:12:15;8.38;;;2.22;;
65461;SDS011;53236;43.666;18.444;2023-07-20T09:14:44;7.65;;;2.00;;
65461;SDS011;53236;43.666;18.444;2023-07-20T09:17:13;8.52;;;2.15;;
65461;SDS011;53236;43.666;18.444;2023-07-20T09:19:46;9.50;;;2.10;;
65461;SDS011;53236;43.666;18.444;2023-07-20T09:22:12;8.52;;;1.90;;
65461;SDS011;53236;43.666;18.444;2023-07-20T09:24:38;4.65;;;2.00;;
65461;SDS011;53236;43.666;18.444;2023-07-20T09:27:06;7.90;;;2.35;;
65461;SDS011;53236;43.666;18.444;2023-07-20T09:29:32;6.40;;;1.92;;
65461;SDS011;53236;43.666;18.444;2023-07-20T09:31:58;6.65;;;2.55;;
65461;SDS011;53236;43.666;18.444;2023-07-20T09:34:26;10.68;;;2.42;;
65461;SDS011;53236;43.666;18.444;2023-07-20T09:36:53;9.18;;;2.28;;
65461;SDS011;53236;43.666;18.444;2023-07-20T09:39:19;8.35;;;2.67;;
65461;SDS011;53236;43.666;18.444;2023-07-20T09:41:45;7.25;;;2.20;;
65461;SDS011;53236;43.666;18.444;2023-07-20T09:44:12;11.25;;;2.90;;
65461;SDS011;53236;43.666;18.444;2023-07-20T09:46:45;5.22;;;1.85;;
65461;SDS011;53236;43.666;18.444;2023-07-20T09:49:16;4.33;;;1.90;;
65461;SDS011;53236;43.666;18.444;2023-07-20T09:51:42;6.70;;;1.90;;
65461;SDS011;53236;43.666;18.444;2023-07-20T09:54:10;5.28;;;1.80;;
65461;SDS011;53236;43.666;18.444;2023-07-20T09:56:38;7.53;;;2.00;;
65461;SDS011;53236;43.666;18.444;2023-07-20T09:59:05;8.73;;;2.10;;
65461;SDS011;53236;43.666;18.444;2023-07-20T10:01:31;6.65;;;2.13;;
65461;SDS011;53236;43.666;18.444;2023-07-20T10:03:59;8.57;;;2.60;;
65461;SDS011;53236;43.666;18.444;2023-07-20T10:06:29;6.90;;;2.03;;
65461;SDS011;53236;43.666;18.444;2023-07-20T10:09:00;5.35;;;2.10;;
65461;SDS011;53236;43.666;18.444;2023-07-20T10:11:29;8.05;;;2.33;;
65461;SDS011;53236;43.666;18.444;2023-07-20T10:13:56;6.38;;;2.33;;
65461;SDS011;53236;43.666;18.444;2023-07-20T10:19:02;5.88;;;2.17;;
65461;SDS011;53236;43.666;18.444;2023-07-20T10:22:03;7.10;;;2.15;;
65461;SDS011;53236;43.666;18.444;2023-07-20T10:24:33;6.05;;;1.70;;
65461;SDS011;53236;43.666;18.444;2023-07-20T10:27:00;7.82;;;2.25;;
65461;SDS011;53236;43.666;18.444;2023-07-20T10:29:26;8.18;;;2.40;;
65461;SDS011;53236;43.666;18.444;2023-07-20T10:31:53;8.10;;;2.20;;
65461;SDS011;53236;43.666;18.444;2023-07-20T10:34:20;6.90;;;2.10;;
65461;SDS011;53236;43.666;18.444;2023-07-20T10:36:47;5.85;;;1.58;;
65461;SDS011;53236;43.666;18.444;2023-07-20T10:39:26;3.17;;;1.80;;
65461;SDS011;53236;43.666;18.444;2023-07-20T10:44:51;4.15;;;1.58;;
65461;SDS011;53236;43.666;18.444;2023-07-20T10:47:16;3.53;;;1.52;;
65461;SDS011;53236;43.666;18.444;2023-07-20T10:49:58;3.88;;;1.70;;
65461;SDS011;53236;43.666;18.444;2023-07-20T10:52:36;8.93;;;1.77;;
65461;SDS011;53236;43.666;18.444;2023-07-20T10:55:14;4.60;;;1.90;;
65461;SDS011;53236;43.666;18.444;2023-07-20T10:57:41;3.85;;;1.40;;
65461;SDS011;53236;43.666;18.444;2023-07-20T11:00:13;7.15;;;1.80;;
65461;SDS011;53236;43.666;18.444;2023-07-20T11:02:48;5.88;;;2.58;;
65461;SDS011;53236;43.666;18.444;2023-07-20T11:08:06;5.38;;;1.80;;
65461;SDS011;53236;43.666;18.444;2023-07-20T11:10:35;5.40;;;1.70;;
65461;SDS011;53236;43.666;18.444;2023-07-20T11:18:21;5.50;;;1.80;;
65461;SDS011;53236;43.666;18.444;2023-07-20T11:20:51;7.13;;;2.03;;
65461;SDS011;53236;43.666;18.444;2023-07-20T11:23:19;5.82;;;2.20;;
65461;SDS011;53236;43.666;18.444;2023-07-20T11:25:45;5.78;;;2.13;;
65461;SDS011;53236;43.666;18.444;2023-07-20T11:28:11;5.10;;;1.98;;
65461;SDS011;53236;43.666;18.444;2023-07-20T11:30:38;5.25;;;2.10;;
65461;SDS011;53236;43.666;18.444;2023-07-20T11:33:04;4.93;;;2.03;;
65461;SDS011;53236;43.666;18.444;2023-07-20T11:35:36;6.68;;;1.90;;
65461;SDS011;53236;43.666;18.444;2023-07-20T11:38:15;4.43;;;1.98;;
65461;SDS011;53236;43.666;18.444;2023-07-20T11:40:45;5.57;;;1.90;;
65461;SDS011;53236;43.666;18.444;2023-07-20T11:43:14;6.15;;;1.90;;
65461;SDS011;53236;43.666;18.444;2023-07-20T11:45:40;8.52;;;2.33;;
65461;SDS011;53236;43.666;18.444;2023-07-20T11:48:06;9.48;;;1.73;;
65461;SDS011;53236;43.666;18.444;2023-07-20T11:50:31;9.57;;;2.08;;
65461;SDS011;53236;43.666;18.444;2023-07-20T11:53:03;5.90;;;1.73;;
65461;SDS011;53236;43.666;18.444;2023-07-20T11:55:29;4.32;;;1.30;;
65461;SDS011;53236;43.666;18.444;2023-07-20T11:58:28;4.30;;;1.60;;
65461;SDS011;53236;43.666;18.444;2023-07-20T12:00:47;5.25;;;1.73;;
65461;SDS011;53236;43.666;18.444;2023-07-20T12:03:13;5.13;;;1.63;;
65461;SDS011;53236;43.666;18.444;2023-07-20T12:05:39;4.85;;;1.50;;
65461;SDS011;53236;43.666;18.444;2023-07-20T12:08:06;4.25;;;1.73;;
65461;SDS011;53236;43.666;18.444;2023-07-20T12:10:32;5.78;;;1.52;;
65461;SDS011;53236;43.666;18.444;2023-07-20T12:13:01;5.40;;;1.77;;
65461;SDS011;53236;43.666;18.444;2023-07-20T12:15:32;7.07;;;2.05;;
65461;SDS011;53236;43.666;18.444;2023-07-20T12:17:58;5.40;;;1.60;;
65461;SDS011;53236;43.666;18.444;2023-07-20T12:20:32;5.30;;;2.10;;
65461;SDS011;53236;43.666;18.444;2023-07-20T12:23:05;4.13;;;1.80;;
65461;SDS011;53236;43.666;18.444;2023-07-20T12:25:44;4.07;;;1.90;;
65461;SDS011;53236;43.666;18.444;2023-07-20T12:28:12;5.47;;;2.00;;
65461;SDS011;53236;43.666;18.444;2023-07-20T12:30:43;9.18;;;2.05;;
65461;SDS011;53236;43.666;18.444;2023-07-20T12:33:09;4.07;;;2.00;;
65461;SDS011;53236;43.666;18.444;2023-07-20T12:35:37;6.43;;;1.83;;
65461;SDS011;53236;43.666;18.444;2023-07-20T12:38:02;6.20;;;2.25;;
65461;SDS011;53236;43.666;18.444;2023-07-20T12:40:28;5.22;;;1.85;;
65461;SDS011;53236;43.666;18.444;2023-07-20T12:42:55;6.78;;;1.70;;
65461;SDS011;53236;43.666;18.444;2023-07-20T12:45:20;5.10;;;2.15;;
65461;SDS011;53236;43.666;18.444;2023-07-20T12:47:47;4.80;;;1.98;;
65461;SDS011;53236;43.666;18.444;2023-07-20T12:50:13;6.10;;;1.67;;
65461;SDS011;53236;43.666;18.444;2023-07-20T12:52:39;4.28;;;1.80;;
65461;SDS011;53236;43.666;18.444;2023-07-20T12:55:06;6.32;;;1.73;;
65461;SDS011;53236;43.666;18.444;2023-07-20T12:57:35;5.35;;;1.88;;
65461;SDS011;53236;43.666;18.444;2023-07-20T13:00:02;7.35;;;1.73;;
65461;SDS011;53236;43.666;18.444;2023-07-20T13:02:30;4.22;;;1.55;;
65461;SDS011;53236;43.666;18.444;2023-07-20T13:04:57;6.38;;;1.85;;
65461;SDS011;53236;43.666;18.444;2023-07-20T13:07:33;5.25;;;1.55;;
65461;SDS011;53236;43.666;18.444;2023-07-20T13:10:01;4.80;;;1.58;;
65461;SDS011;53236;43.666;18.444;2023-07-20T13:12:29;5.18;;;1.73;;
65461;SDS011;53236;43.666;18.444;2023-07-20T13:14:56;5.97;;;2.10;;
65461;SDS011;53236;43.666;18.444;2023-07-20T13:17:25;8.30;;;2.20;;
65461;SDS011;53236;43.666;18.444;2023-07-20T13:19:54;6.40;;;2.00;;
65461;SDS011;53236;43.666;18.444;2023-07-20T13:22:20;5.15;;;1.63;;
65461;SDS011;53236;43.666;18.444;2023-07-20T13:24:46;4.38;;;1.63;;
65461;SDS011;53236;43.666;18.444;2023-07-20T13:27:15;5.85;;;2.00;;
65461;SDS011;53236;43.666;18.444;2023-07-20T13:29:42;8.18;;;1.85;;
65461;SDS011;53236;43.666;18.444;2023-07-20T13:32:08;3.08;;;1.40;;
65461;SDS011;53236;43.666;18.444;2023-07-20T13:34:34;8.45;;;1.80;;
65461;SDS011;53236;43.666;18.444;2023-07-20T13:37:00;6.80;;;1.75;;
65461;SDS011;53236;43.666;18.444;2023-07-20T13:39:27;5.35;;;1.67;;
65461;SDS011;53236;43.666;18.444;2023-07-20T13:41:55;6.72;;;1.83;;
65461;SDS011;53236;43.666;18.444;2023-07-20T13:44:20;5.40;;;2.35;;
65461;SDS011;53236;43.666;18.444;2023-07-20T13:46:47;9.15;;;2.40;;
65461;SDS011;53236;43.666;18.444;2023-07-20T13:49:13;3.17;;;1.80;;
65461;SDS011;53236;43.666;18.444;2023-07-20T13:51:39;4.43;;;1.80;;
65461;SDS011;53236;43.666;18.444;2023-07-20T13:54:06;4.72;;;1.63;;
65461;SDS011;53236;43.666;18.444;2023-07-20T13:56:32;3.47;;;1.52;;
65461;SDS011;53236;43.666;18.444;2023-07-20T13:58:58;6.75;;;1.42;;
65461;SDS011;53236;43.666;18.444;2023-07-20T14:01:23;4.93;;;1.60;;
65461;SDS011;53236;43.666;18.444;2023-07-20T14:03:50;3.97;;;1.50;;
65461;SDS011;53236;43.666;18.444;2023-07-20T14:06:16;6.05;;;1.60;;
65461;SDS011;53236;43.666;18.444;2023-07-20T14:08:42;9.13;;;1.98;;
65461;SDS011;53236;43.666;18.444;2023-07-20T14:11:11;5.82;;;1.85;;
65461;SDS011;53236;43.666;18.444;2023-07-20T14:13:38;4.05;;;1.45;;
65461;SDS011;53236;43.666;18.444;2023-07-20T14:16:04;6.03;;;1.70;;
65461;SDS011;53236;43.666;18.444;2023-07-20T14:18:30;5.40;;;1.70;;
65461;SDS011;53236;43.666;18.444;2023-07-20T14:20:55;4.47;;;1.70;;
65461;SDS011;53236;43.666;18.444;2023-07-20T14:23:21;5.78;;;1.65;;
65461;SDS011;53236;43.666;18.444;2023-07-20T14:25:47;3.42;;;1.45;;
65461;SDS011;53236;43.666;18.444;2023-07-20T14:28:14;5.72;;;1.60;;
65461;SDS011;53236;43.666;18.444;2023-07-20T14:30:39;5.00;;;1.55;;
65461;SDS011;53236;43.666;18.444;2023-07-20T14:33:06;3.90;;;1.90;;
65461;SDS011;53236;43.666;18.444;2023-07-20T14:35:32;4.18;;;1.67;;
65461;SDS011;53236;43.666;18.444;2023-07-20T14:37:59;6.28;;;2.10;;
65461;SDS011;53236;43.666;18.444;2023-07-20T14:40:25;6.65;;;1.90;;
65461;SDS011;53236;43.666;18.444;2023-07-20T14:42:51;8.00;;;2.03;;
65461;SDS011;53236;43.666;18.444;2023-07-20T14:45:17;8.10;;;1.92;;
65461;SDS011;53236;43.666;18.444;2023-07-20T14:47:43;7.63;;;2.10;;
65461;SDS011;53236;43.666;18.444;2023-07-20T14:50:10;3.95;;;1.80;;
65461;SDS011;53236;43.666;18.444;2023-07-20T14:52:36;4.72;;;2.15;;
65461;SDS011;53236;43.666;18.444;2023-07-20T14:55:02;4.90;;;1.70;;
65461;SDS011;53236;43.666;18.444;2023-07-20T14:57:29;7.25;;;1.90;;
65461;SDS011;53236;43.666;18.444;2023-07-20T14:59:55;5.15;;;1.90;;
65461;SDS011;53236;43.666;18.444;2023-07-20T15:02:21;8.10;;;1.83;;
65461;SDS011;53236;43.666;18.444;2023-07-20T15:04:50;6.72;;;2.08;;
65461;SDS011;53236;43.666;18.444;2023-07-20T15:07:17;2.92;;;1.10;;
65461;SDS011;53236;43.666;18.444;2023-07-20T15:09:45;5.15;;;2.08;;
65461;SDS011;53236;43.666;18.444;2023-07-20T15:12:11;5.10;;;2.00;;
65461;SDS011;53236;43.666;18.444;2023-07-20T15:14:40;7.65;;;1.90;;
65461;SDS011;53236;43.666;18.444;2023-07-20T15:17:07;3.90;;;1.58;;
65461;SDS011;53236;43.666;18.444;2023-07-20T15:19:36;9.02;;;2.33;;
65461;SDS011;53236;43.666;18.444;2023-07-20T15:22:02;7.07;;;2.05;;
65461;SDS011;53236;43.666;18.444;2023-07-20T15:24:29;4.70;;;1.85;;
65461;SDS011;53236;43.666;18.444;2023-07-20T15:27:00;6.45;;;2.05;;
65461;SDS011;53236;43.666;18.444;2023-07-20T15:29:27;3.72;;;1.65;;
65461;SDS011;53236;43.666;18.444;2023-07-20T15:31:53;6.22;;;2.10;;
65461;SDS011;53236;43.666;18.444;2023-07-20T15:34:19;9.20;;;2.22;;
65461;SDS011;53236;43.666;18.444;2023-07-20T15:36:45;8.77;;;2.13;;
65461;SDS011;53236;43.666;18.444;2023-07-20T15:39:11;7.80;;;2.28;;
65461;SDS011;53236;43.666;18.444;2023-07-20T15:41:36;11.38;;;2.50;;
65461;SDS011;53236;43.666;18.444;2023-07-20T15:44:02;5.82;;;2.55;;
65461;SDS011;53236;43.666;18.444;2023-07-20T15:49:09;13.32;;;2.40;;
65461;SDS011;53236;43.666;18.444;2023-07-20T15:51:35;6.32;;;2.30;;
65461;SDS011;53236;43.666;18.444;2023-07-20T15:54:02;5.82;;;2.30;;
65461;SDS011;53236;43.666;18.444;2023-07-20T15:56:28;7.75;;;2.15;;
65461;SDS011;53236;43.666;18.444;2023-07-20T15:58:53;7.95;;;2.20;;
65461;SDS011;53236;43.666;18.444;2023-07-20T16:01:20;4.60;;;2.10;;
65461;SDS011;53236;43.666;18.444;2023-07-20T16:03:45;7.80;;;2.38;;
65461;SDS011;53236;43.666;18.444;2023-07-20T16:06:12;5.55;;;2.38;;
65461;SDS011;53236;43.666;18.444;2023-07-20T16:08:38;6.93;;;2.50;;
65461;SDS011;53236;43.666;18.444;2023-07-20T16:11:04;9.77;;;2.92;;
65461;SDS011;53236;43.666;18.444;2023-07-20T16:13:30;5.80;;;2.47;;
65461;SDS011;53236;43.666;18.444;2023-07-20T16:15:56;5.60;;;2.35;;
65461;SDS011;53236;43.666;18.444;2023-07-20T16:18:21;5.47;;;2.35;;
65461;SDS011;53236;43.666;18.444;2023-07-20T16:20:47;6.05;;;2.72;;
65461;SDS011;53236;43.666;18.444;2023-07-20T16:23:13;6.30;;;2.72;;
65461;SDS011;53236;43.666;18.444;2023-07-20T16:25:39;5.97;;;2.53;;
65461;SDS011;53236;43.666;18.444;2023-07-20T16:28:04;10.25;;;2.85;;
65461;SDS011;53236;43.666;18.444;2023-07-20T16:30:30;5.95;;;2.60;;
65461;SDS011;53236;43.666;18.444;2023-07-20T16:32:56;5.20;;;2.47;;
65461;SDS011;53236;43.666;18.444;2023-07-20T16:35:27;6.20;;;2.50;;
65461;SDS011;53236;43.666;18.444;2023-07-20T16:37:54;9.23;;;2.70;;
65461;SDS011;53236;43.666;18.444;2023-07-20T16:40:20;6.15;;;2.25;;
65461;SDS011;53236;43.666;18.444;2023-07-20T16:42:46;9.23;;;3.08;;
65461;SDS011;53236;43.666;18.444;2023-07-20T16:45:12;6.45;;;2.70;;
65461;SDS011;53236;43.666;18.444;2023-07-20T16:47:38;4.25;;;2.13;;
65461;SDS011;53236;43.666;18.444;2023-07-20T16:50:04;4.82;;;2.38;;
65461;SDS011;53236;43.666;18.444;2023-07-20T16:52:30;5.35;;;2.25;;
65461;SDS011;53236;43.666;18.444;2023-07-20T16:54:56;10.40;;;2.50;;
65461;SDS011;53236;43.666;18.444;2023-07-20T16:57:22;5.43;;;2.13;;
65461;SDS011;53236;43.666;18.444;2023-07-20T16:59:47;8.27;;;2.38;;
65461;SDS011;53236;43.666;18.444;2023-07-20T17:02:14;5.18;;;2.30;;
65461;SDS011;53236;43.666;18.444;2023-07-20T17:04:40;5.78;;;2.40;;
65461;SDS011;53236;43.666;18.444;2023-07-20T17:07:05;9.82;;;2.55;;
65461;SDS011;53236;43.666;18.444;2023-07-20T17:09:31;6.88;;;2.58;;
65461;SDS011;53236;43.666;18.444;2023-07-20T17:11:59;6.45;;;2.35;;
65461;SDS011;53236;43.666;18.444;2023-07-20T17:14:25;7.13;;;2.30;;
65461;SDS011;53236;43.666;18.444;2023-07-20T17:16:51;5.60;;;2.53;;
65461;SDS011;53236;43.666;18.444;2023-07-20T17:19:17;5.35;;;2.30;;
65461;SDS011;53236;43.666;18.444;2023-07-20T17:21:45;6.15;;;2.63;;
65461;SDS011;53236;43.666;18.444;2023-07-20T17:24:12;6.32;;;2.50;;
65461;SDS011;53236;43.666;18.444;2023-07-20T17:26:38;8.25;;;3.50;;
65461;SDS011;53236;43.666;18.444;2023-07-20T17:29:04;8.23;;;3.50;;
65461;SDS011;53236;43.666;18.444;2023-07-20T17:31:30;8.73;;;3.00;;
65461;SDS011;53236;43.666;18.444;2023-07-20T17:33:56;9.32;;;2.63;;
65461;SDS011;53236;43.666;18.444;2023-07-20T17:36:21;14.00;;;3.30;;
65461;SDS011;53236;43.666;18.444;2023-07-20T17:38:47;11.38;;;3.95;;
65461;SDS011;53236;43.666;18.444;2023-07-20T17:41:13;17.70;;;9.77;;
65461;SDS011;53236;43.666;18.444;2023-07-20T17:43:39;10.52;;;5.75;;
65461;SDS011;53236;43.666;18.444;2023-07-20T17:46:05;12.30;;;3.95;;
65461;SDS011;53236;43.666;18.444;2023-07-20T17:48:31;11.10;;;4.25;;
65461;SDS011;53236;43.666;18.444;2023-07-20T17:50:58;8.63;;;3.15;;
65461;SDS011;53236;43.666;18.444;2023-07-20T17:53:24;7.53;;;3.10;;
65461;SDS011;53236;43.666;18.444;2023-07-20T17:55:52;9.77;;;3.30;;
65461;SDS011;53236;43.666;18.444;2023-07-20T17:58:19;27.20;;;14.50;;
65461;SDS011;53236;43.666;18.444;2023-07-20T18:00:45;21.50;;;10.05;;
65461;SDS011;53236;43.666;18.444;2023-07-20T18:03:11;9.27;;;4.07;;
65461;SDS011;53236;43.666;18.444;2023-07-20T18:05:37;11.25;;;3.50;;
65461;SDS011;53236;43.666;18.444;2023-07-20T18:08:03;13.50;;;3.90;;
65461;SDS011;53236;43.666;18.444;2023-07-20T18:10:29;7.68;;;3.63;;
65461;SDS011;53236;43.666;18.444;2023-07-20T18:12:55;12.70;;;4.38;;
65461;SDS011;53236;43.666;18.444;2023-07-20T18:15:22;9.40;;;4.45;;
65461;SDS011;53236;43.666;18.444;2023-07-20T18:17:47;10.60;;;4.00;;
65461;SDS011;53236;43.666;18.444;2023-07-20T18:20:13;7.00;;;3.42;;
65461;SDS011;53236;43.666;18.444;2023-07-20T18:22:39;7.18;;;3.90;;
65461;SDS011;53236;43.666;18.444;2023-07-20T18:25:05;12.65;;;5.57;;
65461;SDS011;53236;43.666;18.444;2023-07-20T18:27:31;12.43;;;4.80;;
65461;SDS011;53236;43.666;18.444;2023-07-20T18:29:57;7.00;;;3.40;;
65461;SDS011;53236;43.666;18.444;2023-07-20T18:32:24;11.38;;;3.83;;
65461;SDS011;53236;43.666;18.444;2023-07-20T18:34:50;6.13;;;3.60;;
65461;SDS011;53236;43.666;18.444;2023-07-20T18:37:16;9.23;;;3.15;;
65461;SDS011;53236;43.666;18.444;2023-07-20T18:39:48;6.30;;;3.25;;
65461;SDS011;53236;43.666;18.444;2023-07-20T18:42:14;12.75;;;3.72;;
65461;SDS011;53236;43.666;18.444;2023-07-20T18:44:40;13.75;;;3.72;;
65461;SDS011;53236;43.666;18.444;2023-07-20T18:47:07;10.02;;;3.15;;
65461;SDS011;53236;43.666;18.444;2023-07-20T18:49:34;10.60;;;3.60;;
65461;SDS011;53236;43.666;18.444;2023-07-20T18:52:00;8.38;;;3.78;;
65461;SDS011;53236;43.666;18.444;2023-07-20T18:54:27;9.80;;;2.97;;
65461;SDS011;53236;43.666;18.444;2023-07-20T18:56:53;9.35;;;2.95;;
65461;SDS011;53236;43.666;18.444;2023-07-20T18:59:18;10.70;;;3.83;;
65461;SDS011;53236;43.666;18.444;2023-07-20T19:01:44;8.85;;;3.80;;
65461;SDS011;53236;43.666;18.444;2023-07-20T19:04:11;11.00;;;3.38;;
65461;SDS011;53236;43.666;18.444;2023-07-20T19:06:36;8.02;;;3.65;;
65461;SDS011;53236;43.666;18.444;2023-07-20T19:09:03;7.72;;;3.63;;
65461;SDS011;53236;43.666;18.444;2023-07-20T19:11:29;8.77;;;3.03;;
65461;SDS011;53236;43.666;18.444;2023-07-20T19:13:55;15.50;;;3.70;;
65461;SDS011;53236;43.666;18.444;2023-07-20T19:16:21;6.03;;;3.03;;
65461;SDS011;53236;43.666;18.444;2023-07-20T19:18:49;13.48;;;3.47;;
65461;SDS011;53236;43.666;18.444;2023-07-20T19:21:15;12.85;;;3.95;;
65461;SDS011;53236;43.666;18.444;2023-07-20T19:23:41;10.68;;;4.13;;
65461;SDS011;53236;43.666;18.444;2023-07-20T19:26:08;10.32;;;4.40;;
65461;SDS011;53236;43.666;18.444;2023-07-20T19:28:35;14.00;;;3.95;;
65461;SDS011;53236;43.666;18.444;2023-07-20T19:31:02;15.77;;;4.15;;
65461;SDS011;53236;43.666;18.444;2023-07-20T19:33:30;11.38;;;4.28;;
65461;SDS011;53236;43.666;18.444;2023-07-20T19:35:56;13.40;;;4.40;;
65461;SDS011;53236;43.666;18.444;2023-07-20T19:38:25;13.57;;;3.95;;
65461;SDS011;53236;43.666;18.444;2023-07-20T19:40:52;5.57;;;3.60;;
65461;SDS011;53236;43.666;18.444;2023-07-20T19:43:19;11.23;;;4.20;;
65461;SDS011;53236;43.666;18.444;2023-07-20T19:45:49;10.38;;;3.78;;
65461;SDS011;53236;43.666;18.444;2023-07-20T19:48:15;11.18;;;4.07;;
65461;SDS011;53236;43.666;18.444;2023-07-20T19:50:46;14.23;;;4.05;;
65461;SDS011;53236;43.666;18.444;2023-07-20T19:53:13;12.38;;;4.10;;
65461;SDS011;53236;43.666;18.444;2023-07-20T19:55:39;13.05;;;4.25;;
65461;SDS011;53236;43.666;18.444;2023-07-20T19:58:05;11.85;;;3.78;;
65461;SDS011;53236;43.666;18.444;2023-07-20T20:00:31;8.25;;;3.75;;
65461;SDS011;53236;43.666;18.444;2023-07-20T20:02:56;9.90;;;3.92;;
65461;SDS011;53236;43.666;18.444;2023-07-20T20:05:22;7.28;;;3.58;;
65461;SDS011;53236;43.666;18.444;2023-07-20T20:07:50;11.70;;;4.70;;
65461;SDS011;53236;43.666;18.444;2023-07-20T20:10:16;12.73;;;4.25;;
65461;SDS011;53236;43.666;18.444;2023-07-20T20:12:41;8.57;;;3.67;;
65461;SDS011;53236;43.666;18.444;2023-07-20T20:15:08;7.05;;;3.42;;
65461;SDS011;53236;43.666;18.444;2023-07-20T20:17:34;8.55;;;3.92;;
65461;SDS011;53236;43.666;18.444;2023-07-20T20:20:00;10.30;;;4.18;;
65461;SDS011;53236;43.666;18.444;2023-07-20T20:22:26;10.93;;;4.05;;
65461;SDS011;53236;43.666;18.444;2023-07-20T20:24:52;12.80;;;4.57;;
65461;SDS011;53236;43.666;18.444;2023-07-20T20:27:18;8.32;;;4.20;;
65461;SDS011;53236;43.666;18.444;2023-07-20T20:29:44;13.25;;;4.53;;
65461;SDS011;53236;43.666;18.444;2023-07-20T20:32:09;7.07;;;4.10;;
65461;SDS011;53236;43.666;18.444;2023-07-20T20:34:36;10.75;;;4.43;;
65461;SDS011;53236;43.666;18.444;2023-07-20T20:37:02;12.60;;;4.63;;
65461;SDS011;53236;43.666;18.444;2023-07-20T20:39:28;10.23;;;4.22;;
65461;SDS011;53236;43.666;18.444;2023-07-20T20:41:54;9.52;;;4.80;;
65461;SDS011;53236;43.666;18.444;2023-07-20T20:44:20;8.00;;;4.18;;
65461;SDS011;53236;43.666;18.444;2023-07-20T20:46:50;12.65;;;4.68;;
65461;SDS011;53236;43.666;18.444;2023-07-20T20:49:25;10.23;;;4.30;;
65461;SDS011;53236;43.666;18.444;2023-07-20T20:51:52;8.18;;;3.67;;
65461;SDS011;53236;43.666;18.444;2023-07-20T20:54:19;9.73;;;4.50;;
65461;SDS011;53236;43.666;18.444;2023-07-20T20:56:44;7.07;;;3.50;;